メインページ
METAR-TAF:

METAR-TAF

空港 :

カムループス, ブリティッシュコロンビア州, カナダ

緯度: 50-42N, 経度: 120-27W, 海抜: 345m

現時点の気象観測

当レポートは44分前の10:00(UTC)に作成
の風 5kt
気温 1°C
湿度 86%
気圧 1021 hPa
視程: 64.4km
晴天

METAR: CYKA 221000Z 08005KT 40SM SKC 01/M01 A3014 RMK SLP218

時間: 03:44 (10:44 UTC)

予報

当レポートは4時間4分前の06:40(UTC)に作成
予報は22日の 07時(UTC)から 22日の 19時(UTC)まで有効
変向風 3kt
視程: 10km
高度20000ftの雲はほとんどない
確率 30%
22日の 12時(UTC)から 22日の 17時(UTC)まで
視程: 0.8km
高度200ftの千切れ雲あり

TAF: CYKA 220640Z 2207/2219 VRB03KT P6SM FEW200 PROB30 2212/2217 1/2SM FG BKN002 RMK NXT FCST BY 221300Z

4,000以上の空港の気象観測と天気予報(METAR報とTAF報)

利用可能な観測所は地図上に黄色い丸と赤い丸で示す。

丸の上にカーソルを重ねると観測所名を参照できる。

次にクリックすると気象観測と天気予報を参照できる。

マップの切り替え:黒色「×」印の緑ボタンをクリックして拡大、「-」印の緑ボタンをクリックして縮小、緑色の三角印をクリックして隣りの地図に切り替え


METAR-TAF: